Ana Sayfa
METAR-TAF:

METAR-TAF

Havaalanları :

Dzaoudzi, Mayotte

Enlem: 12-48S, Boylam: 045-17E, yükseklik: 8 m

Güncel hava durumu gözlemi

Rapor saat 18:00 UTC de 30 dakika önce yapıldı.
Rüzgar kuzeydan 5 kt
Sıcaklık 28°C
Nem 89%
Basınç 1011 hPa
Görüş mesafesi 10 km veya daha fazla
3600 ft yükseklikte az bulutlu

METAR: FMCZ 101800Z AUTO 01005KT 9999 FEW036 28/26 Q1011

Saat: 21:30 (18:30 UTC)

Tahmin

Rapor saat 12:36 UTC de 5 saat ve 54 dakika önce yapıldı.
Ayın 10'si saat 12 UTC'den ayın 11'si saat 12 UTC'ye kadar geçerli Tahmin
Rüzgar kuzey/kuzeybatıdan 9 kt
Görüş mesafesi 10 km veya daha fazla
2600 ft yükseklikte parçalı bulutlu
Geçici
ayın 10'si saat 14 UTC'den ayın 10'si saat 20 UTC'ye kadar
Görüş mesafesi: 4000 m
1800 ft yükseklikte parçalı çok bulutlu, Yükselen kümülüs.
sağanak yağmurlar

TAF: FMCZ 101236Z 1012/1112 34009KT 9999 SCT026 TEMPO 1014/1020 4000 SHRA BKN018TCU

4.000'den fazla havaalanı için hava durumu gözlemleri ve tahminleri (METAR ve TAF raporları).

Kullanılabilir istasyonlar harita üzerinde sarı ve kırmızı noktalarla gösterilir.

İstasyonun adını görmek için fareyi noktanın üzerinde gezdirin.

Sonrasında hava gözlem ve tahminlerini görmek için tıklayın.

Haritayı değiştirmek için: yaklaştırmak için siyah artı işaretli yeşil düğmeye ve uzaklaştırmak için de eksi işaretli düğmeye hızla tıklayın; bitişik haritalar için yeşil okları kullanın.


METAR-TAF: